Time;durP1;ratioP1;P1;durP2;ratioP2;P2;SDS_P1;SDS_P2;PMS_P1;PMS_P2;Temp;Humidity;BMP_temperature;BMP_pressure;BME280_temperature;BME280_humidity;BME280_pressure;Samples;Min_cycle;Max_cycle;Signal;HPM_P1;HPM_P2
2023/07/14 00:00:39;;;;;;;4.65;3.67;;;18.40;99.90;;;;;;5019391;28;20222;-83
2023/07/14 00:03:08;;;;;;;4.43;3.72;;;18.20;99.90;;;;;;5027065;28;20206;-82
2023/07/14 00:05:38;;;;;;;7.72;3.47;;;18.20;99.90;;;;;;4992095;28;20206;-83
2023/07/14 00:08:15;;;;;;;5.45;3.15;;;18.70;99.90;;;;;;5013092;28;20212;-83
2023/07/14 00:10:42;;;;;;;6.60;4.05;;;18.30;99.90;;;;;;5013916;28;20206;-83
2023/07/14 00:13:10;;;;;;;5.22;3.08;;;18.40;99.90;;;;;;5011790;28;20207;-83
2023/07/14 00:15:39;;;;;;;6.93;3.30;;;18.90;99.90;;;;;;5002028;28;20206;-83
2023/07/14 00:18:17;;;;;;;5.88;2.95;;;19.20;99.90;;;;;;5008048;28;20585;-83
2023/07/14 00:20:45;;;;;;;5.03;3.70;;;19.20;99.90;;;;;;5006869;28;20204;-83
2023/07/14 00:23:14;;;;;;;5.50;4.03;;;18.80;99.90;;;;;;5018134;28;20609;-83
2023/07/14 00:25:42;;;;;;;4.60;3.20;;;18.20;99.90;;;;;;5010539;28;20199;-83
2023/07/14 00:28:16;;;;;;;4.63;4.07;;;18.40;99.90;;;;;;5025305;28;20235;-83
2023/07/14 00:30:43;;;;;;;4.30;3.47;;;18.10;99.90;;;;;;4994798;28;20203;-83
2023/07/14 00:33:15;;;;;;;4.38;3.70;;;18.10;99.90;;;;;;5011203;28;20204;-83
2023/07/14 00:35:43;;;;;;;7.40;4.47;;;17.90;99.90;;;;;;5010035;28;20199;-83
2023/07/14 00:38:11;;;;;;;8.27;3.95;;;17.70;99.90;;;;;;5026542;28;20222;-83
2023/07/14 00:40:42;;;;;;;5.47;4.03;;;17.40;99.90;;;;;;5016896;28;20200;-83
2023/07/14 00:43:15;;;;;;;4.57;3.60;;;17.40;99.90;;;;;;5001637;28;20199;-82
2023/07/14 00:45:44;;;;;;;4.90;3.40;;;17.40;99.90;;;;;;5012340;28;20191;-82
2023/07/14 00:48:17;;;;;;;5.25;3.70;;;18.10;99.90;;;;;;5014995;28;20230;-83
2023/07/14 00:50:50;;;;;;;5.90;3.47;;;18.50;99.90;;;;;;5016159;28;20208;-83
2023/07/14 00:53:21;;;;;;;6.07;4.25;;;18.60;99.90;;;;;;5018858;28;20755;-83
2023/07/14 00:55:52;;;;;;;6.07;3.58;;;18.40;99.90;;;;;;5015544;28;20657;-83
2023/07/14 00:58:23;;;;;;;3.72;3.10;;;18.30;99.90;;;;;;5015123;28;20234;-82
2023/07/14 01:01:02;;;;;;;7.10;4.32;;;18.30;99.90;;;;;;5015866;28;20196;-82
2023/07/14 01:03:32;;;;;;;3.97;3.55;;;18.70;99.90;;;;;;5032228;28;20195;-83
2023/07/14 01:06:03;;;;;;;6.25;3.70;;;18.70;99.90;;;;;;5022853;28;20215;-82
2023/07/14 01:08:31;;;;;;;6.53;4.07;;;18.50;99.90;;;;;;5002655;28;20228;-83
2023/07/14 01:11:00;;;;;;;5.18;3.80;;;18.60;99.90;;;;;;5031135;28;20200;-82
2023/07/14 01:13:30;;;;;;;4.55;3.55;;;18.30;99.90;;;;;;5014685;28;20672;-82
2023/07/14 01:15:58;;;;;;;4.80;3.83;;;18.10;99.90;;;;;;5017309;28;20656;-82
2023/07/14 01:18:25;;;;;;;3.75;3.38;;;18.30;99.90;;;;;;5017017;28;20223;-83
2023/07/14 01:20:54;;;;;;;4.40;3.30;;;18.40;99.90;;;;;;5012520;28;20199;-83
2023/07/14 01:23:37;;;;;;;7.55;3.80;;;18.60;99.90;;;;;;5012842;28;20191;-83
2023/07/14 01:26:28;;;;;;;4.63;3.83;;;18.20;99.90;;;;;;4990712;28;20201;-83
2023/07/14 01:28:57;;;;;;;7.28;3.60;;;17.80;99.90;;;;;;5007969;28;20222;-82
2023/07/14 01:31:26;;;;;;;4.28;3.88;;;17.90;99.90;;;;;;5014293;28;20203;-83
2023/07/14 01:33:56;;;;;;;4.10;3.65;;;17.80;99.90;;;;;;5014580;28;20200;-83
2023/07/14 01:36:25;;;;;;;7.97;3.80;;;18.50;99.90;;;;;;4997876;28;20212;-83
2023/07/14 01:38:54;;;;;;;5.32;3.80;;;18.80;99.90;;;;;;5016928;28;20227;-83
2023/07/14 01:41:33;;;;;;;6.57;3.65;;;18.90;99.90;;;;;;5034259;28;20210;-83
2023/07/14 01:44:04;;;;;;;4.95;3.72;;;18.90;99.90;;;;;;5017681;28;20198;-83
2023/07/14 01:46:32;;;;;;;5.03;3.80;;;18.90;99.90;;;;;;5014396;28;20212;-83
2023/07/14 01:49:09;;;;;;;4.43;3.88;;;18.90;99.90;;;;;;5005308;28;20717;-83
2023/07/14 01:51:43;;;;;;;7.05;3.65;;;18.40;99.90;;;;;;4994559;28;20200;-83
2023/07/14 01:54:26;;;;;;;4.78;3.38;;;18.10;99.90;;;;;;4995776;28;20200;-83
2023/07/14 01:56:56;;;;;;;6.10;4.15;;;18.20;99.90;;;;;;4997812;28;20204;-83
2023/07/14 01:59:31;;;;;;;6.60;4.50;;;17.90;99.90;;;;;;4999622;28;20199;-82
2023/07/14 02:02:01;;;;;;;9.40;4.60;;;17.80;99.90;;;;;;5016993;28;20222;-83
2023/07/14 02:04:31;;;;;;;6.22;4.00;;;17.60;99.90;;;;;;5017974;28;20562;-83
2023/07/14 02:07:02;;;;;;;5.00;4.50;;;17.60;99.90;;;;;;5013802;28;20204;-83
2023/07/14 02:09:31;;;;;;;6.70;4.35;;;17.50;99.90;;;;;;4995801;28;20200;-83
2023/07/14 02:12:02;;;;;;;5.28;4.20;;;17.30;99.90;;;;;;5002950;28;20219;-83
2023/07/14 02:14:42;;;;;;;5.53;4.05;;;17.20;99.90;;;;;;5015384;28;20195;-83
2023/07/14 02:17:16;;;;;;;7.47;3.90;;;17.10;99.90;;;;;;5018011;28;20227;-83
2023/07/14 02:19:44;;;;;;;6.80;3.92;;;17.10;99.90;;;;;;5015761;28;20190;-82
2023/07/14 02:22:11;;;;;;;5.85;4.70;;;17.30;99.90;;;;;;4997195;28;20196;-83
2023/07/14 02:24:39;;;;;;;5.78;3.70;;;17.40;99.90;;;;;;5013766;28;20195;-83
2023/07/14 02:27:07;;;;;;;6.43;3.95;;;17.00;99.90;;;;;;5010252;28;20231;-83
2023/07/14 02:29:35;;;;;;;5.88;4.13;;;17.20;99.90;;;;;;5020228;28;20196;-83
2023/07/14 02:32:14;;;;;;;5.05;3.95;;;17.10;99.90;;;;;;5013633;28;20212;-83
2023/07/14 02:34:47;;;;;;;6.75;4.22;;;16.90;99.90;;;;;;5013526;28;20199;-83
2023/07/14 02:38:03;;;;;;;7.55;4.78;;;17.10;99.90;;;;;;5011230;28;20582;-83
2023/07/14 02:40:36;;;;;;;5.45;3.90;;;16.90;99.90;;;;;;5029159;28;20199;-83
2023/07/14 02:43:05;;;;;;;7.15;4.25;;;16.60;99.90;;;;;;5014110;28;20211;-83
2023/07/14 02:45:38;;;;;;;8.18;4.43;;;16.40;99.90;;;;;;4999327;28;20204;-83
2023/07/14 02:48:10;;;;;;;5.55;4.13;;;16.30;99.90;;;;;;5002331;28;20566;-83
2023/07/14 02:50:37;;;;;;;6.25;4.55;;;16.30;99.90;;;;;;4992418;28;20200;-83
2023/07/14 02:53:05;;;;;;;5.78;4.25;;;16.20;99.90;;;;;;5009829;28;20209;-83
2023/07/14 02:55:33;;;;;;;6.63;4.32;;;16.20;99.90;;;;;;5004479;28;20214;-83
2023/07/14 02:58:00;;;;;;;9.00;4.90;;;16.40;99.90;;;;;;5030265;28;20222;-83
2023/07/14 03:00:28;;;;;;;6.97;4.55;;;16.50;99.90;;;;;;5024133;28;20200;-82
2023/07/14 03:02:57;;;;;;;6.65;4.53;;;16.70;99.90;;;;;;5002535;28;20203;-82
2023/07/14 03:05:24;;;;;;;4.70;4.22;;;16.90;99.90;;;;;;5029843;28;20199;-83
2023/07/14 03:07:52;;;;;;;4.82;4.05;;;16.70;99.90;;;;;;5010272;28;20236;-82
2023/07/14 03:10:20;;;;;;;7.18;4.15;;;16.60;99.90;;;;;;4994344;28;20187;-82
2023/07/14 03:12:47;;;;;;;7.53;4.00;;;16.60;99.90;;;;;;4992935;28;20216;-83
2023/07/14 03:15:16;;;;;;;5.90;4.10;;;16.50;99.90;;;;;;5012490;28;20218;-83
2023/07/14 03:17:43;;;;;;;9.77;4.53;;;16.10;99.90;;;;;;5011759;28;20216;-82
2023/07/14 03:20:14;;;;;;;6.20;3.72;;;16.10;99.90;;;;;;5010996;28;20203;-83
2023/07/14 03:22:41;;;;;;;4.38;3.97;;;16.10;99.90;;;;;;5012963;28;20226;-83
2023/07/14 03:25:09;;;;;;;4.85;4.03;;;16.20;99.90;;;;;;5012412;28;20204;-83
2023/07/14 03:27:37;;;;;;;5.82;4.63;;;16.40;99.90;;;;;;5009315;28;20222;-82
2023/07/14 03:30:05;;;;;;;5.60;4.30;;;16.40;99.90;;;;;;5012243;28;20206;-82
2023/07/14 03:32:33;;;;;;;7.28;4.20;;;16.30;99.90;;;;;;5014363;28;20224;-83
2023/07/14 03:35:00;;;;;;;7.50;4.22;;;16.40;99.90;;;;;;5013920;28;20199;-83
2023/07/14 03:37:30;;;;;;;4.88;4.28;;;16.70;99.90;;;;;;5013320;28;20211;-83
2023/07/14 03:39:57;;;;;;;4.70;4.20;;;16.70;99.90;;;;;;5006147;28;20199;-83
2023/07/14 03:42:25;;;;;;;6.15;4.60;;;16.80;99.90;;;;;;5022330;28;20653;-83
2023/07/14 03:44:52;;;;;;;5.20;4.13;;;16.60;99.90;;;;;;5032308;28;20221;-83
2023/07/14 03:47:20;;;;;;;6.50;4.15;;;16.60;99.90;;;;;;5026111;28;20262;-83
2023/07/14 03:49:47;;;;;;;6.63;4.20;;;16.50;99.90;;;;;;5015761;28;20215;-83
2023/07/14 03:52:14;;;;;;;6.85;4.60;;;16.50;99.90;;;;;;5032621;28;20203;-82
2023/07/14 03:54:44;;;;;;;4.63;3.85;;;16.40;99.90;;;;;;4996943;28;20312;-83
2023/07/14 03:57:12;;;;;;;4.63;3.88;;;16.50;99.90;;;;;;5009158;28;20227;-82
2023/07/14 03:59:40;;;;;;;4.47;4.07;;;16.60;99.90;;;;;;5017532;28;20203;-83
2023/07/14 04:02:07;;;;;;;10.63;3.78;;;16.70;99.90;;;;;;5000607;28;20199;-83
2023/07/14 04:04:35;;;;;;;5.47;4.38;;;16.50;99.90;;;;;;5026158;28;20202;-83
2023/07/14 04:07:03;;;;;;;6.32;3.90;;;16.30;99.90;;;;;;5019908;28;20199;-83
2023/07/14 04:09:30;;;;;;;5.97;3.25;;;16.50;99.90;;;;;;5019084;28;20281;-83
2023/07/14 04:12:00;;;;;;;4.72;3.83;;;17.20;99.90;;;;;;5036347;28;20198;-83
2023/07/14 04:14:27;;;;;;;6.32;3.53;;;17.30;99.90;;;;;;5017481;28;20234;-83
2023/07/14 04:16:55;;;;;;;6.85;3.08;;;17.00;99.90;;;;;;5016203;28;20208;-82
2023/07/14 04:19:22;;;;;;;5.18;3.42;;;17.00;99.90;;;;;;5024798;28;20699;-83
2023/07/14 04:21:50;;;;;;;4.40;3.30;;;17.10;99.90;;;;;;5032422;28;20227;-83
2023/07/14 04:24:17;;;;;;;4.43;3.08;;;17.50;99.90;;;;;;5010188;28;20188;-83
2023/07/14 04:26:45;;;;;;;4.43;3.33;;;17.90;99.90;;;;;;5019657;28;20206;-83
2023/07/14 04:29:14;;;;;;;6.18;3.20;;;17.80;99.90;;;;;;5016573;28;20211;-82
2023/07/14 04:31:42;;;;;;;5.47;3.90;;;17.70;99.90;;;;;;5004603;28;20665;-82
2023/07/14 04:34:09;;;;;;;4.55;3.33;;;17.80;99.90;;;;;;5025932;28;20226;-83
2023/07/14 04:36:37;;;;;;;5.63;3.83;;;17.90;99.90;;;;;;5027032;28;20203;-83
2023/07/14 04:39:06;;;;;;;5.63;3.20;;;18.00;99.90;;;;;;5014988;28;20231;-82
2023/07/14 04:41:35;;;;;;;5.32;3.25;;;18.30;99.90;;;;;;5014742;28;20215;-83
2023/07/14 04:44:07;;;;;;;6.10;3.28;;;18.70;99.90;;;;;;5007527;28;20199;-83
2023/07/14 04:46:37;;;;;;;5.43;3.13;;;18.70;99.90;;;;;;5023261;28;20195;-83
2023/07/14 04:49:04;;;;;;;7.95;3.25;;;18.70;99.90;;;;;;5003263;28;20232;-83
2023/07/14 04:51:32;;;;;;;7.90;3.05;;;18.90;99.90;;;;;;5030162;28;20199;-82
2023/07/14 04:54:00;;;;;;;5.63;2.75;;;18.90;99.90;;;;;;5008747;28;20219;-81
2023/07/14 04:56:27;;;;;;;3.47;2.55;;;18.90;99.90;;;;;;5022156;28;20198;-83
2023/07/14 04:58:55;;;;;;;2.55;2.35;;;19.00;99.90;;;;;;5038184;28;20700;-83
2023/07/14 05:01:24;;;;;;;4.97;2.95;;;19.10;99.90;;;;;;5016902;28;20566;-83
2023/07/14 05:04:05;;;;;;;5.70;2.85;;;19.10;99.90;;;;;;5016858;28;20204;-83
2023/07/14 05:06:33;;;;;;;8.20;3.40;;;19.20;99.90;;;;;;5018400;28;20208;-83
2023/07/14 05:09:01;;;;;;;4.68;2.80;;;19.00;99.90;;;;;;5024426;28;20226;-83
2023/07/14 05:11:30;;;;;;;4.03;3.20;;;18.90;99.90;;;;;;5014134;28;20219;-83
2023/07/14 05:13:57;;;;;;;3.63;2.70;;;19.00;99.90;;;;;;5021682;28;20223;-82
2023/07/14 05:16:31;;;;;;;4.43;2.85;;;19.00;99.90;;;;;;5015162;28;20549;-82
2023/07/14 05:19:00;;;;;;;4.57;2.80;;;18.70;99.90;;;;;;5017047;28;20232;-83
2023/07/14 05:21:29;;;;;;;3.13;2.58;;;18.70;99.90;;;;;;5026872;28;20199;-82
2023/07/14 05:24:12;;;;;;;4.38;3.00;;;18.80;99.90;;;;;;5019893;28;20199;-82
2023/07/14 05:26:44;;;;;;;4.60;3.20;;;18.70;99.90;;;;;;4987808;28;20207;-82
2023/07/14 05:29:11;;;;;;;5.90;3.35;;;18.20;99.90;;;;;;4995555;28;20203;-82
2023/07/14 05:31:40;;;;;;;6.15;3.50;;;18.20;99.90;;;;;;5010254;28;20195;-82
2023/07/14 05:34:08;;;;;;;6.68;3.83;;;17.90;99.90;;;;;;5012010;28;20215;-81
2023/07/14 05:36:38;;;;;;;6.10;3.92;;;17.80;99.90;;;;;;5015976;28;20195;-82
2023/07/14 05:39:05;;;;;;;3.72;3.30;;;17.70;99.90;;;;;;5013878;28;20223;-82
2023/07/14 05:41:32;;;;;;;6.53;3.67;;;17.70;99.90;;;;;;5000678;28;20204;-83
2023/07/14 05:44:00;;;;;;;3.72;3.20;;;18.10;99.90;;;;;;5016929;28;20199;-83
2023/07/14 05:46:33;;;;;;;3.88;3.58;;;18.20;99.90;;;;;;5005863;28;20211;-84
2023/07/14 05:49:00;;;;;;;5.95;3.08;;;18.40;99.90;;;;;;5012840;28;20294;-83
2023/07/14 05:51:28;;;;;;;7.10;3.33;;;18.70;99.90;;;;;;5015590;28;20204;-83
2023/07/14 05:54:01;;;;;;;6.93;3.70;;;18.30;99.90;;;;;;5011346;28;20213;-83
2023/07/14 05:56:29;;;;;;;4.45;3.22;;;18.10;99.90;;;;;;4999263;28;20199;-84
2023/07/14 05:58:56;;;;;;;6.65;2.92;;;18.10;99.90;;;;;;5013872;28;20275;-82
2023/07/14 06:01:24;;;;;;;5.13;3.83;;;18.00;99.90;;;;;;5011844;28;20200;-84
2023/07/14 06:03:53;;;;;;;8.05;3.53;;;18.00;99.90;;;;;;5015287;28;20203;-83
2023/07/14 06:06:21;;;;;;;5.32;3.10;;;18.30;99.90;;;;;;5018766;28;20204;-81
2023/07/14 06:08:49;;;;;;;4.03;3.00;;;18.30;99.90;;;;;;4996380;28;20680;-83
2023/07/14 06:11:18;;;;;;;6.22;3.03;;;18.80;99.90;;;;;;5014844;28;20211;-84
2023/07/14 06:13:45;;;;;;;7.20;4.18;;;18.90;99.90;;;;;;4991196;28;20212;-83
2023/07/14 06:16:13;;;;;;;7.35;4.03;;;18.70;99.90;;;;;;5013811;28;20212;-83
2023/07/14 06:18:40;;;;;;;10.40;5.25;;;18.60;99.90;;;;;;5014162;28;20316;-84
2023/07/14 06:21:10;;;;;;;5.38;3.33;;;18.90;99.90;;;;;;4997477;28;20700;-84
2023/07/14 06:23:39;;;;;;;8.02;3.55;;;18.80;99.90;;;;;;4997321;28;20195;-83
2023/07/14 06:26:06;;;;;;;5.28;3.67;;;19.00;99.90;;;;;;5009408;28;20199;-83
2023/07/14 06:28:35;;;;;;;4.68;3.03;;;18.70;99.90;;;;;;5022033;28;20219;-84
2023/07/14 06:31:05;;;;;;;6.90;3.28;;;18.90;99.90;;;;;;5018172;28;20207;-84
2023/07/14 06:33:33;;;;;;;5.15;3.40;;;19.00;99.90;;;;;;4995973;28;20210;-83
2023/07/14 06:36:01;;;;;;;4.72;3.75;;;18.70;99.90;;;;;;5011578;28;20224;-84
2023/07/14 06:38:29;;;;;;;6.13;3.75;;;19.10;99.90;;;;;;4992288;28;20830;-84
2023/07/14 06:40:56;;;;;;;3.95;3.08;;;18.70;99.90;;;;;;4992564;28;20561;-83
2023/07/14 06:43:24;;;;;;;5.28;2.95;;;18.60;99.90;;;;;;5007991;28;20207;-83
2023/07/14 06:45:53;;;;;;;6.53;3.03;;;18.70;99.90;;;;;;5011521;28;20204;-83
2023/07/14 06:48:21;;;;;;;5.40;3.45;;;18.90;99.90;;;;;;5008172;28;20238;-81
2023/07/14 06:50:49;;;;;;;4.80;3.50;;;18.70;99.90;;;;;;4998123;28;20204;-83
2023/07/14 06:53:17;;;;;;;4.50;2.75;;;18.70;99.90;;;;;;4994864;28;20211;-83
2023/07/14 06:55:45;;;;;;;4.20;3.22;;;19.00;99.90;;;;;;5021464;28;20222;-83
2023/07/14 06:58:13;;;;;;;4.43;2.70;;;19.10;99.90;;;;;;5017267;28;20224;-82
2023/07/14 07:00:41;;;;;;;3.28;2.97;;;19.10;99.90;;;;;;5007507;28;20203;-83
2023/07/14 07:03:10;;;;;;;6.53;2.90;;;19.30;99.90;;;;;;5014624;28;20665;-83
2023/07/14 07:05:39;;;;;;;2.92;2.50;;;19.30;99.90;;;;;;5010864;28;20187;-83
2023/07/14 07:08:10;;;;;;;4.93;2.78;;;19.20;99.90;;;;;;5012562;28;20225;-84
2023/07/14 07:10:37;;;;;;;5.68;3.00;;;19.40;99.90;;;;;;5007688;28;20203;-83
2023/07/14 07:13:05;;;;;;;4.10;2.88;;;19.40;99.90;;;;;;5008845;28;20215;-83
2023/07/14 07:15:32;;;;;;;4.65;3.08;;;19.10;99.90;;;;;;5011180;28;20223;-84
2023/07/14 07:18:00;;;;;;;5.80;3.25;;;19.20;99.90;;;;;;5011057;28;20215;-84
2023/07/14 07:20:29;;;;;;;5.20;2.95;;;19.10;99.90;;;;;;5003172;28;20203;-84
2023/07/14 07:22:56;;;;;;;6.30;2.83;;;19.50;99.90;;;;;;5009032;28;20211;-83
2023/07/14 07:25:26;;;;;;;5.68;2.85;;;19.70;99.90;;;;;;5005093;28;20559;-84
2023/07/14 07:27:53;;;;;;;5.00;3.13;;;19.60;99.90;;;;;;4999175;28;20227;-84
2023/07/14 07:30:21;;;;;;;6.65;3.28;;;19.50;99.90;;;;;;5008068;28;20210;-84
2023/07/14 07:32:55;;;;;;;7.38;3.35;;;19.50;99.90;;;;;;5010527;28;20228;-84
2023/07/14 07:35:23;;;;;;;5.43;2.53;;;19.30;99.90;;;;;;5008731;28;20222;-85
2023/07/14 07:37:51;;;;;;;5.47;2.95;;;19.40;99.90;;;;;;5017522;28;20293;-84
2023/07/14 07:40:19;;;;;;;3.60;3.28;;;19.50;99.90;;;;;;5010338;28;20199;-85
2023/07/14 07:42:51;;;;;;;5.88;2.72;;;19.40;99.90;;;;;;4994757;28;20218;-84
2023/07/14 07:45:19;;;;;;;3.47;2.67;;;19.40;99.90;;;;;;5009394;28;20200;-84
2023/07/14 07:47:46;;;;;;;4.85;3.10;;;19.50;99.90;;;;;;5008262;28;20231;-84
2023/07/14 07:50:14;;;;;;;3.53;2.53;;;19.80;99.90;;;;;;4994595;28;20211;-81
2023/07/14 07:52:47;;;;;;;3.47;2.50;;;19.80;99.90;;;;;;5012226;28;20208;-84
2023/07/14 07:55:17;;;;;;;4.13;2.30;;;19.70;99.90;;;;;;5010555;28;20583;-84
2023/07/14 07:57:47;;;;;;;3.95;2.47;;;19.80;99.90;;;;;;5010154;28;20226;-84
2023/07/14 08:00:15;;;;;;;4.35;2.85;;;19.90;99.90;;;;;;4991291;28;20563;-83
2023/07/14 08:02:43;;;;;;;6.15;2.63;;;19.80;99.90;;;;;;5003411;28;20195;-82
2023/07/14 08:05:13;;;;;;;2.72;2.35;;;20.10;99.90;;;;;;5008678;28;20643;-82
2023/07/14 08:07:42;;;;;;;4.53;2.80;;;20.20;99.90;;;;;;5008553;28;20235;-83
2023/07/14 08:10:10;;;;;;;7.93;3.13;;;20.10;99.90;;;;;;5007509;28;20293;-83
2023/07/14 08:12:39;;;;;;;3.00;2.47;;;20.00;99.90;;;;;;4994212;28;20203;-82
2023/07/14 08:15:08;;;;;;;5.45;2.83;;;19.90;99.90;;;;;;5001496;28;20223;-83
2023/07/14 08:17:54;;;;;;;4.07;2.30;;;20.00;99.90;;;;;;5015056;28;20227;-84
2023/07/14 08:20:22;;;;;;;3.42;2.20;;;20.10;99.90;;;;;;5011454;28;20594;-82
2023/07/14 08:22:50;;;;;;;4.10;2.38;;;20.10;99.90;;;;;;5026817;28;20211;-82
2023/07/14 08:25:18;;;;;;;4.75;2.70;;;20.10;99.90;;;;;;4996574;28;20201;-83
2023/07/14 08:27:47;;;;;;;2.53;2.33;;;20.10;99.90;;;;;;5014111;28;20211;-83
2023/07/14 08:30:14;;;;;;;4.80;2.50;;;20.20;99.90;;;;;;5009276;28;20200;-82
2023/07/14 08:32:42;;;;;;;4.10;2.00;;;20.30;99.90;;;;;;4997442;28;20693;-83
2023/07/14 08:35:09;;;;;;;3.30;2.10;;;20.40;99.90;;;;;;5016915;28;20223;-83
2023/07/14 08:37:37;;;;;;;4.03;2.20;;;20.50;99.90;;;;;;5016975;28;20576;-83
2023/07/14 08:40:06;;;;;;;7.78;2.50;;;20.50;99.90;;;;;;5018651;28;20206;-82
2023/07/14 08:42:44;;;;;;;3.10;2.10;;;20.50;99.90;;;;;;5022750;28;21347;-83
2023/07/14 08:45:27;;;;;;;3.47;2.05;;;20.60;99.90;;;;;;5001599;28;20200;-83
2023/07/14 08:48:05;;;;;;;2.75;1.95;;;20.70;99.90;;;;;;5011309;28;20584;-83
2023/07/14 08:50:37;;;;;;;3.95;2.25;;;20.70;99.90;;;;;;5019714;28;20203;-83
2023/07/14 08:53:09;;;;;;;3.80;2.10;;;20.90;99.90;;;;;;5012375;28;20242;-82
2023/07/14 08:55:40;;;;;;;3.70;1.73;;;20.90;99.90;;;;;;5012736;28;20211;-83
2023/07/14 08:58:15;;;;;;;4.90;2.70;;;20.90;99.90;;;;;;5012014;28;20219;-81
2023/07/14 09:00:48;;;;;;;3.30;2.28;;;20.90;99.90;;;;;;5015671;28;20224;-81
2023/07/14 09:03:19;;;;;;;3.95;2.50;;;20.80;99.90;;;;;;5004082;28;20203;-82
2023/07/14 09:05:51;;;;;;;4.25;2.50;;;20.90;99.90;;;;;;5011026;28;20200;-82
2023/07/14 09:08:19;;;;;;;2.58;2.10;;;21.00;99.90;;;;;;5021716;28;20602;-82
2023/07/14 09:10:58;;;;;;;5.57;2.63;;;21.00;99.90;;;;;;5010071;28;20203;-82
2023/07/14 09:13:43;;;;;;;3.63;2.10;;;21.10;99.90;;;;;;5004726;28;20203;-82
2023/07/14 09:16:26;;;;;;;2.97;2.10;;;21.30;99.90;;;;;;4990955;28;20211;-82
2023/07/14 09:19:07;;;;;;;5.40;2.20;;;21.20;99.90;;;;;;5012584;28;20216;-82
2023/07/14 09:21:52;;;;;;;4.18;2.55;;;21.30;99.90;;;;;;4993622;28;20203;-82
2023/07/14 09:24:31;;;;;;;4.50;2.47;;;21.30;99.90;;;;;;5006644;28;20716;-82
2023/07/14 09:26:58;;;;;;;3.15;2.75;;;21.40;99.90;;;;;;5005877;28;20190;-82
2023/07/14 09:29:34;;;;;;;2.65;2.40;;;21.40;99.90;;;;;;4994344;28;20192;-82
2023/07/14 09:32:07;;;;;;;3.83;2.63;;;21.40;99.90;;;;;;5002404;28;20203;-82
2023/07/14 09:34:39;;;;;;;3.65;2.53;;;21.40;99.90;;;;;;5010039;28;20261;-82
2023/07/14 09:37:19;;;;;;;4.05;2.10;;;21.40;99.90;;;;;;5011706;28;20250;-82
2023/07/14 09:39:52;;;;;;;3.63;2.58;;;21.60;99.90;;;;;;5003356;28;20199;-82
2023/07/14 09:42:26;;;;;;;3.22;1.90;;;21.60;99.90;;;;;;5005735;28;20215;-82
2023/07/14 09:44:59;;;;;;;4.97;2.65;;;21.70;99.90;;;;;;4999244;28;20208;-82
2023/07/14 09:47:29;;;;;;;2.40;2.20;;;21.80;99.90;;;;;;5007883;28;20234;-82
2023/07/14 09:49:57;;;;;;;4.18;2.35;;;21.80;99.90;;;;;;5017112;28;20211;-82
2023/07/14 09:52:28;;;;;;;4.78;2.72;;;21.70;99.90;;;;;;5015405;28;20539;-83
2023/07/14 09:54:59;;;;;;;4.80;2.50;;;21.80;99.90;;;;;;5011018;28;20204;-82
2023/07/14 09:57:28;;;;;;;3.33;2.42;;;21.90;99.50;;;;;;5012753;28;20227;-82
2023/07/14 09:59:58;;;;;;;3.30;2.42;;;22.00;99.90;;;;;;5009634;28;20210;-82
2023/07/14 10:02:32;;;;;;;4.32;2.45;;;21.90;99.90;;;;;;5011911;28;20210;-82
2023/07/14 10:05:03;;;;;;;3.67;2.33;;;22.00;99.90;;;;;;5013265;28;20203;-83
2023/07/14 10:07:40;;;;;;;3.15;2.40;;;22.10;99.10;;;;;;4996198;28;20224;-83
2023/07/14 10:10:12;;;;;;;2.30;2.10;;;22.10;98.00;;;;;;4994962;28;20195;-83
2023/07/14 10:12:46;;;;;;;3.63;2.30;;;22.10;98.50;;;;;;5012198;28;20207;-83
2023/07/14 10:15:38;;;;;;;3.55;2.45;;;22.20;98.90;;;;;;4998253;28;20543;-83
2023/07/14 10:18:15;;;;;;;4.35;3.03;;;22.40;99.10;;;;;;5011518;28;20219;-83
2023/07/14 10:20:57;;;;;;;4.20;2.70;;;22.60;99.50;;;;;;5012672;28;20552;-83
2023/07/14 10:23:28;;;;;;;3.33;2.50;;;22.50;98.80;;;;;;5013487;28;20195;-82
2023/07/14 10:25:56;;;;;;;6.18;2.70;;;22.50;98.70;;;;;;5004765;28;20199;-82
2023/07/14 10:28:28;;;;;;;4.32;2.60;;;22.60;98.30;;;;;;5016455;28;20227;-82
2023/07/14 10:31:04;;;;;;;3.83;2.50;;;22.40;98.30;;;;;;5011316;28;20681;-82
2023/07/14 10:33:43;;;;;;;6.13;2.53;;;22.60;97.90;;;;;;5001070;28;20207;-82
2023/07/14 10:36:16;;;;;;;3.80;2.40;;;22.80;98.10;;;;;;5011773;28;20223;-82
2023/07/14 10:38:52;;;;;;;2.75;2.38;;;23.00;97.60;;;;;;5007231;28;20219;-82
2023/07/14 10:41:21;;;;;;;4.05;2.83;;;23.00;96.80;;;;;;5008772;28;20211;-81
2023/07/14 10:43:53;;;;;;;4.95;2.97;;;23.10;96.40;;;;;;4998332;28;20212;-82
2023/07/14 10:46:24;;;;;;;4.28;2.80;;;23.10;95.80;;;;;;5016882;28;20207;-81
2023/07/14 10:48:58;;;;;;;3.42;2.90;;;23.10;95.20;;;;;;5015729;28;20599;-81
2023/07/14 10:51:36;;;;;;;4.65;2.72;;;23.20;96.40;;;;;;5007235;28;20195;-80
2023/07/14 10:54:10;;;;;;;3.42;2.88;;;23.20;95.40;;;;;;5012871;28;20192;-80
2023/07/14 10:56:42;;;;;;;3.13;2.83;;;23.20;95.70;;;;;;5008610;28;20210;-80
2023/07/14 10:59:16;;;;;;;4.53;2.83;;;23.20;95.20;;;;;;5016522;28;20693;-80
2023/07/14 11:01:56;;;;;;;4.75;2.92;;;23.50;95.50;;;;;;5015224;28;20196;-80
2023/07/14 11:04:31;;;;;;;6.25;3.70;;;23.60;95.00;;;;;;5006446;28;20204;-80
2023/07/14 11:07:00;;;;;;;5.00;3.22;;;23.60;95.10;;;;;;5016019;28;20186;-80
2023/07/14 11:09:29;;;;;;;2.60;2.40;;;23.70;95.00;;;;;;5013585;28;20207;-80
2023/07/14 11:12:07;;;;;;;3.38;2.90;;;23.70;94.00;;;;;;5013515;28;20203;-80
2023/07/14 11:14:53;;;;;;;5.38;2.97;;;23.60;94.30;;;;;;5013053;28;20230;-80
2023/07/14 11:17:27;;;;;;;3.65;2.88;;;23.70;94.50;;;;;;5015259;28;20600;-81
2023/07/14 11:20:08;;;;;;;4.22;2.90;;;23.60;94.50;;;;;;5004787;28;20210;-80
2023/07/14 11:23:06;;;;;;;4.75;3.22;;;23.20;94.30;;;;;;5012785;28;20203;-80
2023/07/14 11:25:40;;;;;;;4.13;3.13;;;23.40;94.40;;;;;;4995158;28;20681;-80
2023/07/14 11:28:22;;;;;;;5.20;3.20;;;23.50;95.00;;;;;;5015166;28;20719;-80
2023/07/14 11:30:55;;;;;;;4.25;3.17;;;23.70;94.90;;;;;;5013807;28;20559;-80
2023/07/14 11:33:31;;;;;;;3.90;2.55;;;23.60;94.40;;;;;;5009075;28;20700;-80
2023/07/14 11:36:03;;;;;;;4.45;3.10;;;23.90;95.00;;;;;;5010447;28;20203;-81
2023/07/14 11:38:39;;;;;;;2.90;2.67;;;24.10;94.40;;;;;;5022409;28;20223;-80
2023/07/14 11:41:07;;;;;;;3.67;2.85;;;24.00;93.30;;;;;;5027034;28;20194;-80
2023/07/14 11:43:35;;;;;;;3.53;2.35;;;23.80;92.90;;;;;;5005757;28;20208;-79
2023/07/14 11:46:06;;;;;;;3.40;2.83;;;23.80;93.40;;;;;;5011844;28;20200;-80
2023/07/14 11:48:36;;;;;;;3.78;2.90;;;23.80;93.60;;;;;;5004784;28;20224;-80
2023/07/14 11:51:10;;;;;;;3.10;2.65;;;23.70;94.00;;;;;;4995759;28;20570;-80
2023/07/14 11:53:41;;;;;;;3.13;2.70;;;23.50;93.20;;;;;;4992428;28;20210;-80
2023/07/14 11:56:27;;;;;;;3.83;2.92;;;23.50;93.60;;;;;;5005451;28;20215;-79
2023/07/14 11:59:14;;;;;;;3.95;3.05;;;23.70;94.80;;;;;;4990073;28;20223;-80
2023/07/14 12:01:48;;;;;;;4.72;2.80;;;24.10;93.50;;;;;;5007062;28;20246;-81
2023/07/14 12:04:22;;;;;;;4.40;2.85;;;24.20;92.90;;;;;;5004007;28;20208;-81
2023/07/14 12:07:11;;;;;;;3.45;2.88;;;24.40;93.30;;;;;;5025892;28;20203;-81
2023/07/14 12:09:57;;;;;;;4.22;2.70;;;24.20;93.90;;;;;;5018222;28;20191;-82
2023/07/14 12:12:24;;;;;;;3.75;2.75;;;24.40;92.90;;;;;;5017786;28;20223;-80
2023/07/14 12:14:52;;;;;;;4.05;3.08;;;24.20;92.70;;;;;;5008145;28;20719;-81
2023/07/14 12:17:48;;;;;;;4.28;2.80;;;24.20;92.40;;;;;;5012899;28;20228;-81
2023/07/14 12:20:28;;;;;;;4.07;3.17;;;24.40;92.10;;;;;;4996923;28;20202;-81
2023/07/14 12:23:18;;;;;;;6.15;2.75;;;24.30;91.90;;;;;;5016006;28;20226;-81
2023/07/14 12:26:04;;;;;;;3.17;2.88;;;24.40;92.00;;;;;;5015434;28;20214;-80
2023/07/14 12:28:38;;;;;;;4.32;3.13;;;24.30;92.50;;;;;;4997885;28;20220;-81
2023/07/14 12:31:11;;;;;;;5.28;2.95;;;24.30;92.60;;;;;;5000683;28;20203;-81
2023/07/14 12:33:39;;;;;;;3.45;2.78;;;24.30;92.60;;;;;;5015782;28;20202;-83
2023/07/14 12:36:10;;;;;;;3.97;2.92;;;24.50;93.00;;;;;;5019670;28;20202;-80
2023/07/14 12:38:45;;;;;;;3.47;2.45;;;24.50;92.80;;;;;;5010010;28;20600;-81
2023/07/14 12:41:14;;;;;;;3.67;2.63;;;24.60;92.00;;;;;;5030103;28;20209;-81
2023/07/14 12:43:44;;;;;;;3.30;2.95;;;25.00;92.80;;;;;;5015175;28;20669;-81
2023/07/14 12:46:26;;;;;;;3.97;2.42;;;25.10;92.10;;;;;;5019600;28;20216;-81
2023/07/14 12:49:01;;;;;;;5.18;2.78;;;25.00;91.70;;;;;;5013254;28;20234;-82
2023/07/14 12:51:30;;;;;;;4.95;2.67;;;25.00;91.30;;;;;;5016249;28;20199;-81
2023/07/14 12:54:01;;;;;;;5.72;2.75;;;24.60;90.80;;;;;;4999942;28;20203;-81
2023/07/14 12:56:30;;;;;;;4.13;2.72;;;24.50;91.70;;;;;;5015319;28;20200;-81
2023/07/14 12:58:59;;;;;;;3.50;2.45;;;24.40;90.40;;;;;;5006428;28;20231;-81
2023/07/14 13:01:27;;;;;;;3.03;2.25;;;24.80;90.50;;;;;;5013661;28;20215;-81
2023/07/14 13:03:54;;;;;;;3.00;2.60;;;25.20;90.50;;;;;;5013519;28;20214;-81
2023/07/14 13:06:24;;;;;;;4.63;2.92;;;25.60;88.80;;;;;;4997156;28;20280;-81
2023/07/14 13:08:53;;;;;;;4.07;2.92;;;25.60;87.50;;;;;;5017469;28;20222;-82